createdAt,value
2023-03-07T00:00:42.459Z,19.88
2023-03-07T00:03:11.289Z,21.50
2023-03-07T00:05:37.868Z,19.85
2023-03-07T00:08:04.670Z,19.40
2023-03-07T00:10:31.116Z,19.55
2023-03-07T00:12:57.529Z,20.05
2023-03-07T00:15:23.961Z,18.73
2023-03-07T00:17:50.379Z,18.40
2023-03-07T00:20:17.004Z,17.67
2023-03-07T00:22:44.387Z,16.27
2023-03-07T00:25:10.953Z,18.75
2023-03-07T00:27:37.354Z,20.48
2023-03-07T00:30:04.829Z,19.27
2023-03-07T00:32:32.124Z,25.15
2023-03-07T00:34:59.202Z,19.95
2023-03-07T00:37:25.668Z,18.42
2023-03-07T00:39:52.114Z,20.52
2023-03-07T00:42:18.536Z,20.23
2023-03-07T00:44:45.613Z,18.80
2023-03-07T00:47:12.046Z,15.63
2023-03-07T00:49:38.494Z,14.55
2023-03-07T00:52:05.019Z,14.18
2023-03-07T00:54:31.450Z,14.55
2023-03-07T00:56:57.886Z,14.70
2023-03-07T00:59:24.280Z,14.95
2023-03-07T01:01:50.755Z,15.20
2023-03-07T01:04:17.212Z,17.02
2023-03-07T01:06:43.648Z,15.75
2023-03-07T01:09:10.760Z,16.98
2023-03-07T01:11:37.810Z,19.50
2023-03-07T01:14:05.511Z,19.08
2023-03-07T01:16:33.439Z,17.60
2023-03-07T01:19:01.266Z,17.90
2023-03-07T01:21:29.280Z,17.00
2023-03-07T01:23:56.029Z,18.52
2023-03-07T01:26:23.696Z,17.15
2023-03-07T01:28:50.835Z,17.33
2023-03-07T01:31:17.270Z,16.50
2023-03-07T01:33:43.753Z,18.35
2023-03-07T01:36:16.497Z,19.35
2023-03-07T01:38:43.039Z,20.17
2023-03-07T01:41:09.565Z,17.70
2023-03-07T01:43:36.009Z,17.67
2023-03-07T01:46:22.758Z,18.85
2023-03-07T01:48:52.194Z,19.63
2023-03-07T01:51:19.190Z,17.55
2023-03-07T01:53:46.863Z,18.50
2023-03-07T01:56:13.433Z,19.35
2023-03-07T01:58:40.054Z,18.05
2023-03-07T02:01:09.292Z,17.60
2023-03-07T02:03:39.818Z,17.30
2023-03-07T02:06:09.592Z,17.08
2023-03-07T02:08:37.138Z,17.70
2023-03-07T02:11:03.877Z,17.95
2023-03-07T02:13:30.556Z,18.15
2023-03-07T02:15:57.846Z,19.15
2023-03-07T02:18:25.724Z,20.15
2023-03-07T02:20:57.989Z,19.13
2023-03-07T02:23:27.336Z,19.23
2023-03-07T02:26:03.370Z,19.58
2023-03-07T02:28:30.553Z,18.10
2023-03-07T02:30:58.052Z,20.17
2023-03-07T02:33:25.202Z,19.98
2023-03-07T02:35:56.007Z,18.15
2023-03-07T02:38:23.150Z,17.95
2023-03-07T02:40:50.590Z,17.33
2023-03-07T02:43:16.998Z,18.65
2023-03-07T02:45:43.469Z,18.38
2023-03-07T02:48:09.988Z,18.50
2023-03-07T02:50:36.486Z,18.42
2023-03-07T02:53:03.382Z,19.63
2023-03-07T02:55:30.014Z,19.10
2023-03-07T02:57:56.456Z,18.13
2023-03-07T03:00:23.031Z,18.30
2023-03-07T03:02:49.448Z,18.20
2023-03-07T03:05:15.971Z,17.17
2023-03-07T03:07:42.481Z,17.73
2023-03-07T03:10:09.388Z,15.73
2023-03-07T03:12:35.802Z,16.63
2023-03-07T03:15:02.336Z,18.23
2023-03-07T03:17:28.980Z,17.23
2023-03-07T03:19:56.451Z,16.80
2023-03-07T03:22:23.033Z,16.90
2023-03-07T03:24:49.603Z,17.58
2023-03-07T03:27:16.019Z,18.33
2023-03-07T03:29:42.522Z,18.30
2023-03-07T03:32:08.968Z,18.65
2023-03-07T03:34:35.514Z,19.27
2023-03-07T03:37:01.933Z,17.30
2023-03-07T03:39:29.162Z,18.77
2023-03-07T03:41:57.102Z,17.42
2023-03-07T03:44:23.645Z,18.23
2023-03-07T03:46:50.221Z,18.98
2023-03-07T03:49:17.002Z,18.13
2023-03-07T03:51:43.457Z,18.10
2023-03-07T03:54:10.014Z,17.42
2023-03-07T03:56:36.580Z,17.75
2023-03-07T03:59:03.501Z,17.73
2023-03-07T04:01:30.151Z,17.25
2023-03-07T04:03:57.187Z,17.63
2023-03-07T04:06:25.308Z,19.23
2023-03-07T04:08:52.741Z,19.75
2023-03-07T04:11:19.443Z,19.52
2023-03-07T04:13:45.908Z,19.38
2023-03-07T04:16:12.382Z,19.35
2023-03-07T04:18:40.203Z,17.80
2023-03-07T04:21:13.041Z,18.63
2023-03-07T04:23:39.517Z,18.45
2023-03-07T04:26:07.250Z,18.02
2023-03-07T04:28:44.434Z,17.02
2023-03-07T04:31:12.115Z,17.42
2023-03-07T04:33:38.796Z,16.48
2023-03-07T04:36:05.710Z,16.33
2023-03-07T04:38:32.387Z,17.75
2023-03-07T04:40:59.087Z,16.80
2023-03-07T04:43:25.786Z,18.10
2023-03-07T04:45:52.766Z,17.27
2023-03-07T04:48:19.569Z,17.33
2023-03-07T04:50:48.715Z,17.42
2023-03-07T04:53:15.129Z,16.67
2023-03-07T04:55:41.531Z,17.30
2023-03-07T04:58:12.820Z,16.38
2023-03-07T05:00:42.776Z,16.83
2023-03-07T05:03:09.676Z,16.25
2023-03-07T05:05:37.687Z,15.48
2023-03-07T05:08:04.762Z,15.95
2023-03-07T05:10:34.658Z,16.15
2023-03-07T05:13:01.259Z,14.57
2023-03-07T05:15:28.028Z,15.48
2023-03-07T05:17:54.492Z,16.17
2023-03-07T05:20:20.872Z,15.80
2023-03-07T05:22:47.407Z,14.57
2023-03-07T05:25:13.904Z,15.48
2023-03-07T05:27:40.619Z,16.88
2023-03-07T05:30:07.479Z,15.57
2023-03-07T05:32:33.999Z,15.80
2023-03-07T05:35:00.472Z,17.05
2023-03-07T05:37:27.023Z,16.02
2023-03-07T05:39:53.877Z,17.25
2023-03-07T05:42:20.475Z,19.63
2023-03-07T05:44:46.918Z,21.20
2023-03-07T05:47:13.332Z,20.02
2023-03-07T05:49:39.824Z,19.60
2023-03-07T05:52:06.389Z,18.48
2023-03-07T05:54:32.953Z,17.80
2023-03-07T05:56:59.450Z,18.13
2023-03-07T05:59:25.941Z,16.83
2023-03-07T06:01:52.422Z,17.73
2023-03-07T06:04:18.912Z,15.73
2023-03-07T06:06:45.691Z,17.23
2023-03-07T06:09:12.170Z,15.43
2023-03-07T06:11:38.718Z,18.65
2023-03-07T06:14:05.205Z,20.23
2023-03-07T06:16:31.708Z,20.00
2023-03-07T06:18:58.139Z,19.77
2023-03-07T06:21:24.579Z,21.05
2023-03-07T06:23:51.055Z,19.42
2023-03-07T06:26:17.550Z,21.33
2023-03-07T06:28:44.164Z,20.25
2023-03-07T06:31:11.715Z,21.67
2023-03-07T06:33:38.268Z,22.42
2023-03-07T06:36:05.625Z,21.20
2023-03-07T06:38:32.137Z,21.92
2023-03-07T06:40:58.620Z,21.73
2023-03-07T06:43:25.128Z,21.40
2023-03-07T06:45:51.711Z,21.73
2023-03-07T06:48:18.367Z,23.80
2023-03-07T06:50:45.342Z,23.30
2023-03-07T06:53:11.881Z,21.35
2023-03-07T06:55:38.486Z,20.10
2023-03-07T06:58:05.128Z,21.85
2023-03-07T07:00:31.699Z,21.50
2023-03-07T07:02:58.381Z,21.65
2023-03-07T07:05:24.946Z,20.85
2023-03-07T07:07:51.570Z,19.00
2023-03-07T07:10:18.105Z,21.80
2023-03-07T07:12:44.490Z,22.50
2023-03-07T07:15:10.989Z,21.90
2023-03-07T07:17:39.171Z,23.15
2023-03-07T07:20:06.412Z,21.05
2023-03-07T07:22:33.108Z,18.80
2023-03-07T07:24:59.604Z,19.10
2023-03-07T07:27:26.201Z,18.30
2023-03-07T07:29:52.703Z,18.90
2023-03-07T07:32:19.231Z,27.15
2023-03-07T07:34:45.833Z,21.33
2023-03-07T07:37:12.330Z,18.98
2023-03-07T07:39:41.442Z,18.48
2023-03-07T17:19:29.037Z,741.72
2023-03-07T17:21:56.186Z,704.38
2023-03-07T17:24:23.491Z,557.60
2023-03-07T17:26:50.315Z,192.07
2023-03-07T17:29:25.533Z,38.63
2023-03-07T17:31:51.967Z,31.95
2023-03-07T17:34:29.829Z,36.88
2023-03-07T17:36:57.562Z,35.42
2023-03-07T17:39:25.077Z,29.27
2023-03-07T17:41:51.776Z,26.27
2023-03-07T17:44:19.161Z,25.52
2023-03-07T17:46:46.493Z,27.05
2023-03-07T17:49:13.069Z,27.35
2023-03-07T17:51:40.449Z,29.23
2023-03-07T17:54:08.320Z,29.75
2023-03-07T17:56:35.931Z,37.55
2023-03-07T17:59:02.523Z,39.33
2023-03-07T18:01:30.956Z,481.92
2023-03-07T18:03:57.898Z,144.77
2023-03-07T18:06:27.475Z,67.68
2023-03-07T18:08:53.900Z,54.28
2023-03-07T18:11:21.773Z,50.60
2023-03-07T18:13:48.227Z,57.63
2023-03-07T18:16:20.668Z,58.88
2023-03-07T18:18:58.335Z,60.13
2023-03-07T18:21:26.821Z,89.90
2023-03-07T18:23:53.250Z,81.13
2023-03-07T18:26:21.841Z,86.30
2023-03-07T18:28:49.844Z,90.40
2023-03-07T18:31:18.739Z,90.72
2023-03-07T18:33:45.604Z,92.03
2023-03-07T18:36:14.471Z,87.60
2023-03-07T18:38:41.225Z,80.38
2023-03-07T18:41:10.149Z,79.07
2023-03-07T18:43:36.656Z,71.65
2023-03-07T18:46:04.979Z,68.78
2023-03-07T18:48:34.541Z,72.65
2023-03-07T18:51:02.101Z,69.15
2023-03-07T18:53:29.749Z,67.50
2023-03-07T18:55:56.306Z,58.20
2023-03-07T18:58:24.492Z,53.75
2023-03-07T19:00:50.964Z,45.10
2023-03-07T19:03:18.518Z,45.70
2023-03-07T19:05:48.673Z,41.83
2023-03-07T19:08:17.770Z,41.65
2023-03-07T19:10:45.160Z,43.42
2023-03-07T19:13:13.616Z,40.67
2023-03-07T19:15:40.126Z,37.92
2023-03-07T19:18:07.507Z,63.05
2023-03-07T19:20:34.062Z,34.58
2023-03-07T19:23:04.558Z,36.38
2023-03-07T19:25:32.011Z,31.98
2023-03-07T19:27:59.309Z,31.20
2023-03-07T19:30:25.867Z,33.17
2023-03-07T19:32:53.260Z,29.08
2023-03-07T19:35:19.711Z,29.55
2023-03-07T19:37:47.072Z,26.45
2023-03-07T19:40:13.667Z,25.75
2023-03-07T19:42:42.512Z,29.20
2023-03-07T19:45:10.246Z,30.45
2023-03-07T19:47:37.671Z,26.33
2023-03-07T19:50:05.521Z,25.75
2023-03-07T19:52:32.037Z,23.42
2023-03-07T19:55:02.456Z,22.45
2023-03-07T19:57:28.931Z,20.80
2023-03-07T19:59:57.575Z,19.85
2023-03-07T20:02:24.108Z,20.42
2023-03-07T20:04:50.684Z,22.92
2023-03-07T20:07:19.423Z,22.33
2023-03-07T20:09:45.889Z,23.92
2023-03-07T20:12:13.445Z,22.95
2023-03-07T20:14:42.832Z,23.40
2023-03-07T20:17:10.565Z,22.95
2023-03-07T20:19:38.348Z,21.63
2023-03-07T20:22:05.511Z,20.67
2023-03-07T20:24:33.161Z,20.08
2023-03-07T20:27:01.597Z,19.60
2023-03-07T20:29:28.126Z,19.55
2023-03-07T20:31:55.889Z,19.70
2023-03-07T20:34:25.355Z,18.50
2023-03-07T20:36:53.027Z,19.45
2023-03-07T20:39:20.483Z,18.63
2023-03-07T20:41:48.304Z,17.95
2023-03-07T20:44:15.236Z,19.15
2023-03-07T20:46:44.487Z,18.75
2023-03-07T20:49:12.701Z,19.67
2023-03-07T20:51:42.378Z,18.10
2023-03-07T20:54:12.208Z,19.13
2023-03-07T20:56:42.444Z,18.05
2023-03-07T20:59:10.823Z,17.88
2023-03-07T21:01:37.385Z,14.90
2023-03-07T21:04:07.305Z,14.70
2023-03-07T21:06:34.637Z,14.05
2023-03-07T21:09:03.464Z,14.00
2023-03-07T21:11:31.475Z,14.70
2023-03-07T21:13:59.258Z,14.10
2023-03-07T21:16:28.214Z,12.27
2023-03-07T21:19:01.371Z,11.80
2023-03-07T21:21:28.647Z,13.00
2023-03-07T21:23:58.395Z,12.15
2023-03-07T21:26:26.393Z,13.32
2023-03-07T21:28:53.893Z,12.35
2023-03-07T21:31:21.621Z,12.63
2023-03-07T21:33:57.497Z,12.18
2023-03-07T21:36:27.877Z,12.75
2023-03-07T21:38:55.281Z,12.85
2023-03-07T21:41:22.321Z,12.23
2023-03-07T21:43:51.315Z,13.13
2023-03-07T21:46:21.610Z,15.00
2023-03-07T21:48:49.249Z,15.45
2023-03-07T21:51:15.928Z,16.83
2023-03-07T21:53:43.330Z,16.95
2023-03-07T21:56:10.667Z,15.80
2023-03-07T21:58:44.466Z,14.88
2023-03-07T22:01:17.358Z,13.60
2023-03-07T22:03:45.547Z,14.52
2023-03-07T22:06:13.270Z,15.30
2023-03-07T22:08:40.555Z,16.77
2023-03-07T22:11:08.218Z,16.60
2023-03-07T22:13:35.801Z,17.60
2023-03-07T22:16:08.383Z,17.85
2023-03-07T22:18:35.397Z,17.48
2023-03-07T22:24:01.744Z,17.90
2023-03-07T22:26:42.689Z,16.65
2023-03-07T22:29:09.107Z,19.10
2023-03-07T22:31:36.484Z,18.27
2023-03-07T22:34:03.069Z,18.70
2023-03-07T22:36:31.305Z,19.23
2023-03-07T22:38:57.850Z,17.75
2023-03-07T22:41:25.462Z,17.95
2023-03-07T22:43:52.648Z,18.40
2023-03-07T22:46:20.224Z,18.45
2023-03-07T22:48:46.829Z,16.63
2023-03-07T22:51:15.773Z,17.15
2023-03-07T22:53:42.294Z,16.23
2023-03-07T22:56:13.991Z,14.77
2023-03-07T22:58:40.473Z,14.02
2023-03-07T23:01:17.750Z,14.07
2023-03-07T23:03:44.341Z,13.45
2023-03-07T23:06:11.477Z,11.43
2023-03-07T23:08:38.290Z,13.10
2023-03-07T23:11:06.548Z,12.48
2023-03-07T23:13:34.235Z,11.25
2023-03-07T23:16:21.473Z,11.35
2023-03-07T23:18:50.727Z,11.63
2023-03-07T23:21:19.129Z,11.48
2023-03-07T23:23:46.378Z,10.43
2023-03-07T23:26:18.337Z,10.45
2023-03-07T23:28:46.156Z,10.73
2023-03-07T23:31:20.842Z,8.80
2023-03-07T23:33:49.076Z,9.82
2023-03-07T23:36:17.236Z,8.15
2023-03-07T23:38:46.454Z,8.23
2023-03-07T23:41:14.307Z,8.75
2023-03-07T23:43:41.868Z,7.95
2023-03-07T23:46:09.954Z,7.50
2023-03-07T23:48:40.378Z,7.07
2023-03-07T23:51:08.368Z,6.53
2023-03-07T23:53:36.169Z,6.07
2023-03-07T23:56:05.374Z,5.22
2023-03-07T23:58:33.252Z,4.85
